sensor_id;sensor_type;location;lat;lon;timestamp;temperature;humidity
37412;DHT22;23278;52.110;6.050;2023-04-03T00:00:29;4.20;91.10
37412;DHT22;23278;52.110;6.050;2023-04-03T00:02:55;4.20;91.20
37412;DHT22;23278;52.110;6.050;2023-04-03T00:05:21;4.20;91.50
37412;DHT22;23278;52.110;6.050;2023-04-03T00:07:47;4.20;91.50
37412;DHT22;23278;52.110;6.050;2023-04-03T00:10:13;4.10;91.50
37412;DHT22;23278;52.110;6.050;2023-04-03T00:12:40;4.10;91.80
37412;DHT22;23278;52.110;6.050;2023-04-03T00:15:06;4.10;91.90
37412;DHT22;23278;52.110;6.050;2023-04-03T00:17:33;4.10;92.00
37412;DHT22;23278;52.110;6.050;2023-04-03T00:19:58;4.00;92.00
37412;DHT22;23278;52.110;6.050;2023-04-03T00:22:24;4.00;92.10
37412;DHT22;23278;52.110;6.050;2023-04-03T00:24:52;4.00;92.20
37412;DHT22;23278;52.110;6.050;2023-04-03T00:27:18;4.00;92.70
37412;DHT22;23278;52.110;6.050;2023-04-03T00:29:44;3.90;92.80
37412;DHT22;23278;52.110;6.050;2023-04-03T00:32:10;3.90;92.80
37412;DHT22;23278;52.110;6.050;2023-04-03T00:34:36;3.90;92.90
37412;DHT22;23278;52.110;6.050;2023-04-03T00:37:02;3.90;93.00
37412;DHT22;23278;52.110;6.050;2023-04-03T00:39:27;3.80;93.30
37412;DHT22;23278;52.110;6.050;2023-04-03T00:41:53;3.80;93.30
37412;DHT22;23278;52.110;6.050;2023-04-03T00:47:04;3.80;93.40
37412;DHT22;23278;52.110;6.050;2023-04-03T00:49:31;3.70;93.40
37412;DHT22;23278;52.110;6.050;2023-04-03T00:51:58;3.70;93.40
37412;DHT22;23278;52.110;6.050;2023-04-03T00:54:25;3.70;93.60
37412;DHT22;23278;52.110;6.050;2023-04-03T00:56:53;3.70;93.60
37412;DHT22;23278;52.110;6.050;2023-04-03T00:59:29;3.60;93.60
37412;DHT22;23278;52.110;6.050;2023-04-03T01:01:56;3.70;93.80
37412;DHT22;23278;52.110;6.050;2023-04-03T01:06:55;3.60;93.90
37412;DHT22;23278;52.110;6.050;2023-04-03T01:09:21;3.60;94.00
37412;DHT22;23278;52.110;6.050;2023-04-03T01:11:48;3.60;94.00
37412;DHT22;23278;52.110;6.050;2023-04-03T01:14:14;3.50;94.20
37412;DHT22;23278;52.110;6.050;2023-04-03T01:16:40;3.50;94.20
37412;DHT22;23278;52.110;6.050;2023-04-03T01:19:14;3.40;94.40
37412;DHT22;23278;52.110;6.050;2023-04-03T01:26:51;3.30;94.70
37412;DHT22;23278;52.110;6.050;2023-04-03T01:29:18;3.20;94.70
37412;DHT22;23278;52.110;6.050;2023-04-03T01:31:53;3.20;94.80
37412;DHT22;23278;52.110;6.050;2023-04-03T01:34:20;3.10;94.90
37412;DHT22;23278;52.110;6.050;2023-04-03T01:36:46;3.10;95.10
37412;DHT22;23278;52.110;6.050;2023-04-03T01:39:12;3.00;95.30
37412;DHT22;23278;52.110;6.050;2023-04-03T01:41:38;3.00;95.40
37412;DHT22;23278;52.110;6.050;2023-04-03T01:44:12;2.90;95.50
37412;DHT22;23278;52.110;6.050;2023-04-03T01:46:38;2.80;95.70
37412;DHT22;23278;52.110;6.050;2023-04-03T01:49:04;2.80;95.70
37412;DHT22;23278;52.110;6.050;2023-04-03T01:51:30;2.80;96.00
37412;DHT22;23278;52.110;6.050;2023-04-03T01:53:56;2.70;96.00
37412;DHT22;23278;52.110;6.050;2023-04-03T01:56:22;2.70;96.10
37412;DHT22;23278;52.110;6.050;2023-04-03T01:58:49;2.70;96.20
37412;DHT22;23278;52.110;6.050;2023-04-03T02:01:16;2.60;96.50
37412;DHT22;23278;52.110;6.050;2023-04-03T02:03:42;2.60;96.70
37412;DHT22;23278;52.110;6.050;2023-04-03T02:06:07;2.60;96.90
37412;DHT22;23278;52.110;6.050;2023-04-03T02:08:33;2.50;96.90
37412;DHT22;23278;52.110;6.050;2023-04-03T02:10:59;2.50;97.10
37412;DHT22;23278;52.110;6.050;2023-04-03T02:13:25;2.50;97.30
37412;DHT22;23278;52.110;6.050;2023-04-03T02:15:51;2.40;97.30
37412;DHT22;23278;52.110;6.050;2023-04-03T02:18:17;2.40;97.40
37412;DHT22;23278;52.110;6.050;2023-04-03T02:20:43;2.30;97.70
37412;DHT22;23278;52.110;6.050;2023-04-03T02:23:10;2.30;97.80
37412;DHT22;23278;52.110;6.050;2023-04-03T02:25:36;2.30;97.90
37412;DHT22;23278;52.110;6.050;2023-04-03T02:28:02;2.30;98.00
37412;DHT22;23278;52.110;6.050;2023-04-03T02:30:29;2.20;98.10
37412;DHT22;23278;52.110;6.050;2023-04-03T02:32:55;2.20;98.20
37412;DHT22;23278;52.110;6.050;2023-04-03T02:35:21;2.10;98.40
37412;DHT22;23278;52.110;6.050;2023-04-03T02:37:48;2.10;98.50
37412;DHT22;23278;52.110;6.050;2023-04-03T02:40:14;2.10;98.50
37412;DHT22;23278;52.110;6.050;2023-04-03T02:42:40;2.10;98.70
37412;DHT22;23278;52.110;6.050;2023-04-03T02:45:06;2.00;98.70
37412;DHT22;23278;52.110;6.050;2023-04-03T02:47:33;2.00;98.80
37412;DHT22;23278;52.110;6.050;2023-04-03T02:49:58;2.00;99.00
37412;DHT22;23278;52.110;6.050;2023-04-03T02:52:24;1.90;99.00
37412;DHT22;23278;52.110;6.050;2023-04-03T02:54:53;1.90;99.10
37412;DHT22;23278;52.110;6.050;2023-04-03T02:57:19;1.80;99.20
37412;DHT22;23278;52.110;6.050;2023-04-03T02:59:46;1.80;99.30
37412;DHT22;23278;52.110;6.050;2023-04-03T03:02:12;1.80;99.50
37412;DHT22;23278;52.110;6.050;2023-04-03T03:04:38;1.80;99.60
37412;DHT22;23278;52.110;6.050;2023-04-03T03:07:04;1.70;99.70
37412;DHT22;23278;52.110;6.050;2023-04-03T03:09:31;1.70;99.80
37412;DHT22;23278;52.110;6.050;2023-04-03T03:11:58;1.70;99.80
37412;DHT22;23278;52.110;6.050;2023-04-03T03:14:23;1.60;99.90
37412;DHT22;23278;52.110;6.050;2023-04-03T03:16:49;1.60;99.90
37412;DHT22;23278;52.110;6.050;2023-04-03T03:19:15;1.60;99.90
37412;DHT22;23278;52.110;6.050;2023-04-03T03:21:42;1.50;99.90
37412;DHT22;23278;52.110;6.050;2023-04-03T03:24:08;1.50;99.90
37412;DHT22;23278;52.110;6.050;2023-04-03T03:26:34;1.50;99.90
37412;DHT22;23278;52.110;6.050;2023-04-03T03:29:01;1.40;99.90
37412;DHT22;23278;52.110;6.050;2023-04-03T03:31:28;1.40;99.90
37412;DHT22;23278;52.110;6.050;2023-04-03T03:33:54;1.40;99.90
37412;DHT22;23278;52.110;6.050;2023-04-03T03:36:21;1.30;99.90
37412;DHT22;23278;52.110;6.050;2023-04-03T03:38:47;1.30;99.90
37412;DHT22;23278;52.110;6.050;2023-04-03T03:41:13;1.30;99.90
37412;DHT22;23278;52.110;6.050;2023-04-03T03:43:41;1.20;99.90
37412;DHT22;23278;52.110;6.050;2023-04-03T03:46:07;1.20;99.90
37412;DHT22;23278;52.110;6.050;2023-04-03T03:48:33;1.20;99.90
37412;DHT22;23278;52.110;6.050;2023-04-03T03:50:59;1.20;99.90
37412;DHT22;23278;52.110;6.050;2023-04-03T03:53:29;1.10;99.90
37412;DHT22;23278;52.110;6.050;2023-04-03T03:56:00;1.10;99.90
37412;DHT22;23278;52.110;6.050;2023-04-03T03:58:28;1.10;99.90
37412;DHT22;23278;52.110;6.050;2023-04-03T04:00:54;1.00;99.90
37412;DHT22;23278;52.110;6.050;2023-04-03T04:03:21;1.00;99.90
37412;DHT22;23278;52.110;6.050;2023-04-03T04:05:48;1.00;99.90
37412;DHT22;23278;52.110;6.050;2023-04-03T04:08:15;1.00;99.90
37412;DHT22;23278;52.110;6.050;2023-04-03T04:10:41;0.90;99.90
37412;DHT22;23278;52.110;6.050;2023-04-03T04:13:08;0.90;99.90
37412;DHT22;23278;52.110;6.050;2023-04-03T04:15:34;0.90;99.90
37412;DHT22;23278;52.110;6.050;2023-04-03T04:18:00;0.90;99.90
37412;DHT22;23278;52.110;6.050;2023-04-03T04:20:26;0.80;99.90
37412;DHT22;23278;52.110;6.050;2023-04-03T04:22:53;0.80;99.90
37412;DHT22;23278;52.110;6.050;2023-04-03T04:25:20;0.80;99.90
37412;DHT22;23278;52.110;6.050;2023-04-03T04:27:46;0.70;99.90
37412;DHT22;23278;52.110;6.050;2023-04-03T04:30:14;0.70;99.90
37412;DHT22;23278;52.110;6.050;2023-04-03T04:32:41;0.70;99.90
37412;DHT22;23278;52.110;6.050;2023-04-03T04:35:07;0.70;99.90
37412;DHT22;23278;52.110;6.050;2023-04-03T04:37:38;0.70;99.90
37412;DHT22;23278;52.110;6.050;2023-04-03T04:40:05;0.60;99.90
37412;DHT22;23278;52.110;6.050;2023-04-03T04:42:31;0.60;99.90
37412;DHT22;23278;52.110;6.050;2023-04-03T04:44:57;0.60;99.90
37412;DHT22;23278;52.110;6.050;2023-04-03T04:47:23;0.50;99.90
37412;DHT22;23278;52.110;6.050;2023-04-03T04:49:50;0.50;99.90
37412;DHT22;23278;52.110;6.050;2023-04-03T04:52:17;0.50;99.90
37412;DHT22;23278;52.110;6.050;2023-04-03T04:54:43;0.50;99.90
37412;DHT22;23278;52.110;6.050;2023-04-03T04:57:09;0.50;99.90
37412;DHT22;23278;52.110;6.050;2023-04-03T04:59:36;0.40;99.90
37412;DHT22;23278;52.110;6.050;2023-04-03T05:02:04;0.40;99.90
37412;DHT22;23278;52.110;6.050;2023-04-03T05:04:30;0.40;99.90
37412;DHT22;23278;52.110;6.050;2023-04-03T05:07:03;0.40;99.90
37412;DHT22;23278;52.110;6.050;2023-04-03T05:09:31;0.40;99.90
37412;DHT22;23278;52.110;6.050;2023-04-03T05:11:57;0.30;99.90
37412;DHT22;23278;52.110;6.050;2023-04-03T05:14:26;0.30;99.90
37412;DHT22;23278;52.110;6.050;2023-04-03T05:16:52;0.40;99.90
37412;DHT22;23278;52.110;6.050;2023-04-03T05:19:21;0.30;99.90
37412;DHT22;23278;52.110;6.050;2023-04-03T05:21:47;0.30;99.90
37412;DHT22;23278;52.110;6.050;2023-04-03T05:24:16;0.30;99.90
37412;DHT22;23278;52.110;6.050;2023-04-03T05:26:43;0.30;99.90
37412;DHT22;23278;52.110;6.050;2023-04-03T05:29:10;0.30;99.90
37412;DHT22;23278;52.110;6.050;2023-04-03T05:31:36;0.40;99.90
37412;DHT22;23278;52.110;6.050;2023-04-03T05:34:04;0.40;99.90
37412;DHT22;23278;52.110;6.050;2023-04-03T05:36:33;0.40;99.90
37412;DHT22;23278;52.110;6.050;2023-04-03T05:39:08;0.40;99.90
37412;DHT22;23278;52.110;6.050;2023-04-03T05:41:37;0.40;99.90
37412;DHT22;23278;52.110;6.050;2023-04-03T05:44:03;0.40;99.90
37412;DHT22;23278;52.110;6.050;2023-04-03T05:46:29;0.40;99.90
37412;DHT22;23278;52.110;6.050;2023-04-03T05:48:57;0.40;99.90
37412;DHT22;23278;52.110;6.050;2023-04-03T05:51:32;0.50;99.90
37412;DHT22;23278;52.110;6.050;2023-04-03T05:54:17;0.60;99.90
37412;DHT22;23278;52.110;6.050;2023-04-03T05:56:44;0.60;99.90
37412;DHT22;23278;52.110;6.050;2023-04-03T05:59:11;0.60;99.90
37412;DHT22;23278;52.110;6.050;2023-04-03T06:01:37;0.70;99.90
37412;DHT22;23278;52.110;6.050;2023-04-03T06:04:03;0.70;99.90
37412;DHT22;23278;52.110;6.050;2023-04-03T06:06:49;0.80;99.90
37412;DHT22;23278;52.110;6.050;2023-04-03T06:09:19;0.90;99.90
37412;DHT22;23278;52.110;6.050;2023-04-03T06:11:45;1.00;99.90
37412;DHT22;23278;52.110;6.050;2023-04-03T06:14:11;1.00;99.90
37412;DHT22;23278;52.110;6.050;2023-04-03T06:16:38;1.10;99.90
37412;DHT22;23278;52.110;6.050;2023-04-03T06:19:10;1.20;99.90
37412;DHT22;23278;52.110;6.050;2023-04-03T06:21:40;1.20;99.90
37412;DHT22;23278;52.110;6.050;2023-04-03T06:24:14;1.30;99.90
37412;DHT22;23278;52.110;6.050;2023-04-03T06:26:41;1.40;99.90
37412;DHT22;23278;52.110;6.050;2023-04-03T06:29:08;1.50;99.90
37412;DHT22;23278;52.110;6.050;2023-04-03T06:31:34;1.50;99.90
37412;DHT22;23278;52.110;6.050;2023-04-03T06:34:03;1.60;99.90
37412;DHT22;23278;52.110;6.050;2023-04-03T06:36:29;1.70;99.90
37412;DHT22;23278;52.110;6.050;2023-04-03T06:38:55;1.80;99.90
37412;DHT22;23278;52.110;6.050;2023-04-03T06:41:21;1.90;99.90
37412;DHT22;23278;52.110;6.050;2023-04-03T06:43:47;1.90;99.90
37412;DHT22;23278;52.110;6.050;2023-04-03T06:46:21;2.00;99.90
37412;DHT22;23278;52.110;6.050;2023-04-03T06:48:48;2.10;99.90
37412;DHT22;23278;52.110;6.050;2023-04-03T06:51:26;2.10;99.90
37412;DHT22;23278;52.110;6.050;2023-04-03T06:53:54;2.20;99.90
37412;DHT22;23278;52.110;6.050;2023-04-03T06:56:21;2.30;99.90
37412;DHT22;23278;52.110;6.050;2023-04-03T06:58:47;2.40;99.90
37412;DHT22;23278;52.110;6.050;2023-04-03T07:01:15;2.50;99.90
37412;DHT22;23278;52.110;6.050;2023-04-03T07:03:42;2.50;99.90
37412;DHT22;23278;52.110;6.050;2023-04-03T07:06:12;2.70;99.90
37412;DHT22;23278;52.110;6.050;2023-04-03T07:08:38;2.70;99.90
37412;DHT22;23278;52.110;6.050;2023-04-03T07:11:05;2.80;99.90
37412;DHT22;23278;52.110;6.050;2023-04-03T07:13:32;2.90;99.90
37412;DHT22;23278;52.110;6.050;2023-04-03T07:15:58;2.90;99.90
37412;DHT22;23278;52.110;6.050;2023-04-03T07:18:25;3.00;99.90
37412;DHT22;23278;52.110;6.050;2023-04-03T07:20:51;3.10;99.90
37412;DHT22;23278;52.110;6.050;2023-04-03T07:23:18;3.10;99.90
37412;DHT22;23278;52.110;6.050;2023-04-03T07:25:46;3.20;99.90
37412;DHT22;23278;52.110;6.050;2023-04-03T07:28:12;3.30;99.90
37412;DHT22;23278;52.110;6.050;2023-04-03T07:30:43;3.40;99.90
37412;DHT22;23278;52.110;6.050;2023-04-03T07:33:12;3.40;99.90
37412;DHT22;23278;52.110;6.050;2023-04-03T07:35:39;3.50;99.90
37412;DHT22;23278;52.110;6.050;2023-04-03T07:38:06;3.50;99.90
37412;DHT22;23278;52.110;6.050;2023-04-03T07:40:32;3.60;99.90
37412;DHT22;23278;52.110;6.050;2023-04-03T07:42:58;3.70;99.90
37412;DHT22;23278;52.110;6.050;2023-04-03T07:45:25;3.80;99.70
37412;DHT22;23278;52.110;6.050;2023-04-03T07:47:52;3.90;99.60
37412;DHT22;23278;52.110;6.050;2023-04-03T07:50:18;4.00;99.60
37412;DHT22;23278;52.110;6.050;2023-04-03T07:52:45;4.10;99.50
37412;DHT22;23278;52.110;6.050;2023-04-03T07:55:12;4.20;99.30
37412;DHT22;23278;52.110;6.050;2023-04-03T07:57:38;4.30;99.00
37412;DHT22;23278;52.110;6.050;2023-04-03T08:00:05;4.50;98.70
37412;DHT22;23278;52.110;6.050;2023-04-03T08:02:38;4.60;98.40
37412;DHT22;23278;52.110;6.050;2023-04-03T08:05:04;4.70;98.00
37412;DHT22;23278;52.110;6.050;2023-04-03T08:07:30;4.90;96.90
37412;DHT22;23278;52.110;6.050;2023-04-03T08:09:56;5.00;96.40
37412;DHT22;23278;52.110;6.050;2023-04-03T08:12:22;5.10;96.10
37412;DHT22;23278;52.110;6.050;2023-04-03T08:14:48;5.30;95.80
37412;DHT22;23278;52.110;6.050;2023-04-03T08:17:14;5.50;95.10
37412;DHT22;23278;52.110;6.050;2023-04-03T08:19:40;5.60;94.80
37412;DHT22;23278;52.110;6.050;2023-04-03T08:22:06;5.70;93.90
37412;DHT22;23278;52.110;6.050;2023-04-03T08:24:33;5.90;92.90
37412;DHT22;23278;52.110;6.050;2023-04-03T08:26:59;6.00;90.00
37412;DHT22;23278;52.110;6.050;2023-04-03T08:34:17;6.20;84.80
37412;DHT22;23278;52.110;6.050;2023-04-03T08:36:43;6.40;77.80
37412;DHT22;23278;52.110;6.050;2023-04-03T08:39:09;6.60;76.70
37412;DHT22;23278;52.110;6.050;2023-04-03T08:41:43;6.70;75.50
37412;DHT22;23278;52.110;6.050;2023-04-03T08:44:25;6.90;74.90
37412;DHT22;23278;52.110;6.050;2023-04-03T08:52:41;7.50;64.10
37412;DHT22;23278;52.110;6.050;2023-04-03T08:55:34;7.60;61.90
37412;DHT22;23278;52.110;6.050;2023-04-03T08:58:05;7.80;60.10
37412;DHT22;23278;52.110;6.050;2023-04-03T09:00:46;7.90;57.30
37412;DHT22;23278;52.110;6.050;2023-04-03T09:03:15;8.10;56.10
37412;DHT22;23278;52.110;6.050;2023-04-03T09:06:04;8.20;55.10
37412;DHT22;23278;52.110;6.050;2023-04-03T09:08:43;8.40;53.90
37412;DHT22;23278;52.110;6.050;2023-04-03T09:11:27;8.50;51.60
37412;DHT22;23278;52.110;6.050;2023-04-03T09:17:02;8.80;48.90
37412;DHT22;23278;52.110;6.050;2023-04-03T09:22:19;9.10;47.80
37412;DHT22;23278;52.110;6.050;2023-04-03T09:24:49;9.30;47.40
37412;DHT22;23278;52.110;6.050;2023-04-03T09:27:15;9.40;44.80
37412;DHT22;23278;52.110;6.050;2023-04-03T09:29:43;9.50;43.90
37412;DHT22;23278;52.110;6.050;2023-04-03T09:34:45;9.80;43.50
37412;DHT22;23278;52.110;6.050;2023-04-03T09:37:42;10.10;43.40
37412;DHT22;23278;52.110;6.050;2023-04-03T09:40:30;10.70;40.80
37412;DHT22;23278;52.110;6.050;2023-04-03T09:43:23;11.40;39.60
37412;DHT22;23278;52.110;6.050;2023-04-03T09:45:50;12.30;38.10
37412;DHT22;23278;52.110;6.050;2023-04-03T09:48:23;13.10;36.50
37412;DHT22;23278;52.110;6.050;2023-04-03T09:50:59;13.80;36.10
37412;DHT22;23278;52.110;6.050;2023-04-03T09:53:38;14.60;34.70
37412;DHT22;23278;52.110;6.050;2023-04-03T09:58:48;16.10;33.40
37412;DHT22;23278;52.110;6.050;2023-04-03T10:04:14;16.90;31.50
37412;DHT22;23278;52.110;6.050;2023-04-03T10:06:42;17.20;31.80
37412;DHT22;23278;52.110;6.050;2023-04-03T10:14:28;18.80;30.50
37412;DHT22;23278;52.110;6.050;2023-04-03T10:36:37;22.60;27.70
37412;DHT22;23278;52.110;6.050;2023-04-03T10:54:11;23.90;25.60
37412;DHT22;23278;52.110;6.050;2023-04-03T10:59:27;24.20;25.70
37412;DHT22;23278;52.110;6.050;2023-04-03T11:04:35;24.70;25.30
37412;DHT22;23278;52.110;6.050;2023-04-03T11:07:24;24.90;25.30
37412;DHT22;23278;52.110;6.050;2023-04-03T11:10:02;25.20;25.30
37412;DHT22;23278;52.110;6.050;2023-04-03T11:12:51;25.50;24.90
37412;DHT22;23278;52.110;6.050;2023-04-03T11:15:20;25.70;25.00
37412;DHT22;23278;52.110;6.050;2023-04-03T11:18:02;25.90;24.70
37412;DHT22;23278;52.110;6.050;2023-04-03T11:20:32;26.00;24.70
37412;DHT22;23278;52.110;6.050;2023-04-03T11:25:38;25.90;24.50
37412;DHT22;23278;52.110;6.050;2023-04-03T11:28:13;26.10;24.20
37412;DHT22;23278;52.110;6.050;2023-04-03T11:31:01;26.40;24.80
37412;DHT22;23278;52.110;6.050;2023-04-03T11:33:58;27.30;24.70
37412;DHT22;23278;52.110;6.050;2023-04-03T11:36:39;27.90;24.50
37412;DHT22;23278;52.110;6.050;2023-04-03T11:39:21;27.80;23.90
37412;DHT22;23278;52.110;6.050;2023-04-03T11:41:48;27.50;24.40
37412;DHT22;23278;52.110;6.050;2023-04-03T11:44:34;27.60;23.90
37412;DHT22;23278;52.110;6.050;2023-04-03T11:47:03;27.40;24.20
37412;DHT22;23278;52.110;6.050;2023-04-03T11:58:01;28.50;24.10
37412;DHT22;23278;52.110;6.050;2023-04-03T12:00:50;29.00;24.30
37412;DHT22;23278;52.110;6.050;2023-04-03T12:06:43;29.80;23.90
37412;DHT22;23278;52.110;6.050;2023-04-03T12:08:44;29.60;24.10
37412;DHT22;23278;52.110;6.050;2023-04-03T12:16:20;30.20;23.90
37412;DHT22;23278;52.110;6.050;2023-04-03T12:26:43;31.40;23.80
37412;DHT22;23278;52.110;6.050;2023-04-03T12:29:21;31.70;23.50
37412;DHT22;23278;52.110;6.050;2023-04-03T12:34:58;31.50;22.90
37412;DHT22;23278;52.110;6.050;2023-04-03T12:45:44;31.10;23.30
37412;DHT22;23278;52.110;6.050;2023-04-03T12:48:16;31.40;23.10
37412;DHT22;23278;52.110;6.050;2023-04-03T12:50:44;31.40;23.00
37412;DHT22;23278;52.110;6.050;2023-04-03T12:53:22;31.80;23.10
37412;DHT22;23278;52.110;6.050;2023-04-03T12:55:55;32.60;23.20
37412;DHT22;23278;52.110;6.050;2023-04-03T12:58:28;33.10;23.00
37412;DHT22;23278;52.110;6.050;2023-04-03T13:01:03;33.10;23.30
37412;DHT22;23278;52.110;6.050;2023-04-03T13:03:30;33.20;23.10
37412;DHT22;23278;52.110;6.050;2023-04-03T13:05:59;33.30;23.00
37412;DHT22;23278;52.110;6.050;2023-04-03T13:08:27;33.10;23.00
37412;DHT22;23278;52.110;6.050;2023-04-03T13:11:10;32.70;23.00
37412;DHT22;23278;52.110;6.050;2023-04-03T13:13:37;32.50;23.20
37412;DHT22;23278;52.110;6.050;2023-04-03T13:16:09;32.30;23.00
37412;DHT22;23278;52.110;6.050;2023-04-03T13:18:37;32.30;23.10
37412;DHT22;23278;52.110;6.050;2023-04-03T13:21:04;32.20;22.90
37412;DHT22;23278;52.110;6.050;2023-04-03T13:23:32;32.30;23.00
37412;DHT22;23278;52.110;6.050;2023-04-03T13:26:00;32.40;22.80
37412;DHT22;23278;52.110;6.050;2023-04-03T13:28:31;32.60;22.90
37412;DHT22;23278;52.110;6.050;2023-04-03T13:33:30;32.30;22.80
37412;DHT22;23278;52.110;6.050;2023-04-03T13:36:04;32.20;22.90
37412;DHT22;23278;52.110;6.050;2023-04-03T13:38:32;32.40;22.80
37412;DHT22;23278;52.110;6.050;2023-04-03T13:41:23;32.20;22.70
37412;DHT22;23278;52.110;6.050;2023-04-03T13:43:49;31.60;22.90
37412;DHT22;23278;52.110;6.050;2023-04-03T13:48:47;31.70;23.20
37412;DHT22;23278;52.110;6.050;2023-04-03T13:53:51;31.90;22.90
37412;DHT22;23278;52.110;6.050;2023-04-03T13:56:24;31.90;23.00
37412;DHT22;23278;52.110;6.050;2023-04-03T14:01:48;31.40;22.90
37412;DHT22;23278;52.110;6.050;2023-04-03T14:04:19;31.70;23.30
37412;DHT22;23278;52.110;6.050;2023-04-03T14:06:48;31.90;23.00
37412;DHT22;23278;52.110;6.050;2023-04-03T14:09:16;32.00;23.10
37412;DHT22;23278;52.110;6.050;2023-04-03T14:11:43;32.30;23.00
37412;DHT22;23278;52.110;6.050;2023-04-03T14:14:17;32.30;23.00
37412;DHT22;23278;52.110;6.050;2023-04-03T14:16:46;32.30;23.30
37412;DHT22;23278;52.110;6.050;2023-04-03T14:19:33;32.20;23.10
37412;DHT22;23278;52.110;6.050;2023-04-03T14:22:00;32.00;23.40
37412;DHT22;23278;52.110;6.050;2023-04-03T14:24:26;32.00;23.50
37412;DHT22;23278;52.110;6.050;2023-04-03T14:26:54;31.80;23.40
37412;DHT22;23278;52.110;6.050;2023-04-03T14:29:21;31.70;23.50
37412;DHT22;23278;52.110;6.050;2023-04-03T14:31:48;31.80;23.50
37412;DHT22;23278;52.110;6.050;2023-04-03T14:34:15;32.10;23.80
37412;DHT22;23278;52.110;6.050;2023-04-03T14:36:43;32.20;23.50
37412;DHT22;23278;52.110;6.050;2023-04-03T14:39:18;32.30;23.50
37412;DHT22;23278;52.110;6.050;2023-04-03T14:41:45;32.40;23.60
37412;DHT22;23278;52.110;6.050;2023-04-03T14:44:11;32.40;23.60
37412;DHT22;23278;52.110;6.050;2023-04-03T14:46:40;32.10;23.50
37412;DHT22;23278;52.110;6.050;2023-04-03T14:49:15;31.60;24.00
37412;DHT22;23278;52.110;6.050;2023-04-03T14:51:43;31.20;23.70
37412;DHT22;23278;52.110;6.050;2023-04-03T14:54:14;31.50;23.90
37412;DHT22;23278;52.110;6.050;2023-04-03T14:56:41;31.50;23.90
37412;DHT22;23278;52.110;6.050;2023-04-03T14:59:12;31.60;24.00
37412;DHT22;23278;52.110;6.050;2023-04-03T15:01:38;31.50;23.80
37412;DHT22;23278;52.110;6.050;2023-04-03T15:04:15;31.00;23.90
37412;DHT22;23278;52.110;6.050;2023-04-03T15:06:42;30.80;24.20
37412;DHT22;23278;52.110;6.050;2023-04-03T15:09:19;30.60;24.00
37412;DHT22;23278;52.110;6.050;2023-04-03T15:11:45;30.60;24.20
37412;DHT22;23278;52.110;6.050;2023-04-03T15:14:11;30.70;23.90
37412;DHT22;23278;52.110;6.050;2023-04-03T15:16:37;30.70;24.00
37412;DHT22;23278;52.110;6.050;2023-04-03T15:19:03;31.00;24.10
37412;DHT22;23278;52.110;6.050;2023-04-03T15:21:29;31.10;23.70
37412;DHT22;23278;52.110;6.050;2023-04-03T15:23:54;31.20;23.80
37412;DHT22;23278;52.110;6.050;2023-04-03T15:26:20;30.90;23.80
37412;DHT22;23278;52.110;6.050;2023-04-03T15:28:46;30.80;23.90
37412;DHT22;23278;52.110;6.050;2023-04-03T15:31:12;30.70;24.00
37412;DHT22;23278;52.110;6.050;2023-04-03T15:33:38;30.40;24.10
37412;DHT22;23278;52.110;6.050;2023-04-03T15:36:05;30.10;24.20
37412;DHT22;23278;52.110;6.050;2023-04-03T15:38:31;29.70;24.10
37412;DHT22;23278;52.110;6.050;2023-04-03T15:40:56;29.10;24.20
37412;DHT22;23278;52.110;6.050;2023-04-03T15:43:23;28.60;24.30
37412;DHT22;23278;52.110;6.050;2023-04-03T15:45:49;27.60;24.40
37412;DHT22;23278;52.110;6.050;2023-04-03T15:48:17;25.60;25.10
37412;DHT22;23278;52.110;6.050;2023-04-03T15:50:43;23.70;26.20
37412;DHT22;23278;52.110;6.050;2023-04-03T15:53:09;22.10;27.10
37412;DHT22;23278;52.110;6.050;2023-04-03T15:55:36;20.90;28.10
37412;DHT22;23278;52.110;6.050;2023-04-03T15:58:03;19.80;28.60
37412;DHT22;23278;52.110;6.050;2023-04-03T16:00:30;18.80;29.20
37412;DHT22;23278;52.110;6.050;2023-04-03T16:03:04;17.90;30.00
37412;DHT22;23278;52.110;6.050;2023-04-03T16:05:31;17.20;30.50
37412;DHT22;23278;52.110;6.050;2023-04-03T16:07:58;16.60;31.10
37412;DHT22;23278;52.110;6.050;2023-04-03T16:10:25;16.00;31.60
37412;DHT22;23278;52.110;6.050;2023-04-03T16:12:51;15.50;32.80
37412;DHT22;23278;52.110;6.050;2023-04-03T16:15:18;15.10;33.20
37412;DHT22;23278;52.110;6.050;2023-04-03T16:17:44;14.60;33.60
37412;DHT22;23278;52.110;6.050;2023-04-03T16:20:11;14.30;34.10
37412;DHT22;23278;52.110;6.050;2023-04-03T16:22:38;14.00;34.50
37412;DHT22;23278;52.110;6.050;2023-04-03T16:25:06;13.80;35.00
37412;DHT22;23278;52.110;6.050;2023-04-03T16:27:32;13.50;35.50
37412;DHT22;23278;52.110;6.050;2023-04-03T16:29:58;13.20;35.50
37412;DHT22;23278;52.110;6.050;2023-04-03T16:32:26;12.90;36.30
37412;DHT22;23278;52.110;6.050;2023-04-03T16:34:53;12.70;37.50
37412;DHT22;23278;52.110;6.050;2023-04-03T16:37:19;12.60;37.70
37412;DHT22;23278;52.110;6.050;2023-04-03T16:39:45;12.50;37.80
37412;DHT22;23278;52.110;6.050;2023-04-03T16:42:11;12.30;38.10
37412;DHT22;23278;52.110;6.050;2023-04-03T16:44:37;12.10;38.60
37412;DHT22;23278;52.110;6.050;2023-04-03T16:47:05;12.00;38.60
37412;DHT22;23278;52.110;6.050;2023-04-03T16:49:40;11.90;38.50
37412;DHT22;23278;52.110;6.050;2023-04-03T16:52:15;11.70;38.80
37412;DHT22;23278;52.110;6.050;2023-04-03T16:54:43;11.60;39.00
37412;DHT22;23278;52.110;6.050;2023-04-03T16:57:22;11.50;39.00
37412;DHT22;23278;52.110;6.050;2023-04-03T16:59:50;11.30;39.30
37412;DHT22;23278;52.110;6.050;2023-04-03T17:02:17;11.20;39.30
37412;DHT22;23278;52.110;6.050;2023-04-03T17:04:43;11.10;39.60
37412;DHT22;23278;52.110;6.050;2023-04-03T17:07:09;10.90;39.80
37412;DHT22;23278;52.110;6.050;2023-04-03T17:09:35;10.90;40.10
37412;DHT22;23278;52.110;6.050;2023-04-03T17:12:01;10.80;40.40
37412;DHT22;23278;52.110;6.050;2023-04-03T17:14:28;10.80;40.50
37412;DHT22;23278;52.110;6.050;2023-04-03T17:16:54;10.70;41.10
37412;DHT22;23278;52.110;6.050;2023-04-03T17:19:20;10.60;41.40
37412;DHT22;23278;52.110;6.050;2023-04-03T17:21:46;10.50;41.50
37412;DHT22;23278;52.110;6.050;2023-04-03T17:24:13;10.40;41.40
37412;DHT22;23278;52.110;6.050;2023-04-03T17:26:41;10.30;41.40
37412;DHT22;23278;52.110;6.050;2023-04-03T17:29:07;10.20;41.30
37412;DHT22;23278;52.110;6.050;2023-04-03T17:31:33;10.00;41.30
37412;DHT22;23278;52.110;6.050;2023-04-03T17:34:03;10.00;41.30
37412;DHT22;23278;52.110;6.050;2023-04-03T17:36:31;9.90;41.50
37412;DHT22;23278;52.110;6.050;2023-04-03T17:38:58;9.90;41.60
37412;DHT22;23278;52.110;6.050;2023-04-03T17:41:24;9.80;42.10
37412;DHT22;23278;52.110;6.050;2023-04-03T17:43:51;9.70;42.30
37412;DHT22;23278;52.110;6.050;2023-04-03T17:46:17;9.70;42.70
37412;DHT22;23278;52.110;6.050;2023-04-03T17:53:34;9.50;42.80
37412;DHT22;23278;52.110;6.050;2023-04-03T17:56:05;9.40;43.00
37412;DHT22;23278;52.110;6.050;2023-04-03T17:58:32;9.30;43.20
37412;DHT22;23278;52.110;6.050;2023-04-03T18:00:57;9.30;43.50
37412;DHT22;23278;52.110;6.050;2023-04-03T18:03:23;9.20;43.60